Terminal Aerodrome Forecast
Issued by NWS Charleston, WV

Current Version | Previous Version | Graphics & Text | Print | Product List | Glossary On
Versions: 1 2 3 4 5 6 7 8 9 10 11 12 13 14 15 16 17 18 19 20 21 22 23
000
FTUS41 KRLX 202320
TAFEKN
TAF
KEKN 202320Z 2100/2124 00000KT P6SM SKC
     FM211000 00000KT 3SM BR SCT001
     FM211100 00000KT 1/4SM FG VV001
     FM211300 00000KT 6SM BR SCT002
     FM211330 18004KT P6SM SCT250=

USA.gov is the U.S. government's official web portal to all federal, state and local government web resources and services.